Terminal Aerodrome Forecast
Issued by NWS Boston, MA

Home | Current Version | Previous Version | Text Only | Print | Product List | Glossary On
Versions: 1 2 3 4 5 6 7 8 9 10 11 12 13 14 15 16 17 18 19 20 21 22 23 24
000
FTUS41 KBOX 252057 AAA
TAFPVD
TAF AMD
KPVD 252057Z 2521/2618 17009KT 5SM BR BKN005 OVC015
     FM260300 24012G26KT 3SM -SHRA BR OVC008
     FM260500 29012G25KT P6SM BKN060
     FM261500 29016G28KT P6SM FEW045=

USA.gov is the U.S. government's official web portal to all federal, state and local government web resources and services.